Terminal Aerodrome Forecast
Issued by NWS

Home | Current Version | Previous Version | Text Only | Print | Product List | Glossary On
Versions: 1 2 3 4 5 6 7 8 9 10 11 12 13 14 15 16
694
FTUS43 KIND 011120
TAFBMG
TAF
KBMG 011120Z 0112/0212 15003KT P6SM SKC
     FM011800 20008KT P6SM VCTS BKN025CB
     FM020200 29006KT P6SM SCT040
     FM020900 30003KT 5SM BR OVC007
      AMD LTD TO CLD VIS AND WIND TIL 011300=

USA.gov is the U.S. government's official web portal to all federal, state and local government web resources and services.